Terminal Aerodrome Forecast
Issued by NWS

Home | Current Version | Previous Version | Text Only | Print | Product List | Glossary On
Versions: 1 2 3 4 5 6 7 8 9 10 11 12 13 14 15 16 17
063
FTUS43 KIWX 232331
TAFSBN
TAF
KSBN 232331Z 2400/2424 31011G18KT P6SM -RA SCT008 OVC015
     FM240100 28013KT P6SM VCSH OVC035
     FM240600 24009KT 3SM -RA OVC008
     FM241800 26013G22KT 2SM -RA OVC008=

USA.gov is the U.S. government's official web portal to all federal, state and local government web resources and services.